createdAt,value
2018-04-10T00:01:53.089Z,22.10
2018-04-10T00:04:26.856Z,22.80
2018-04-10T00:07:00.636Z,24.00
2018-04-10T00:09:34.322Z,24.60
2018-04-10T00:12:08.097Z,24.90
2018-04-10T00:14:41.794Z,25.30
2018-04-10T00:17:15.587Z,25.40
2018-04-10T00:19:49.358Z,25.90
2018-04-10T00:22:23.798Z,26.60
2018-04-10T00:24:57.590Z,26.20
2018-04-10T00:27:31.324Z,26.90
2018-04-10T00:30:05.817Z,27.10
2018-04-10T00:32:40.177Z,27.90
2018-04-10T00:35:13.920Z,27.90
2018-04-10T00:37:48.184Z,28.50
2018-04-10T00:40:22.006Z,28.90
2018-04-10T00:42:55.834Z,28.90
2018-04-10T00:45:29.966Z,28.80
2018-04-10T00:48:05.158Z,29.20
2018-04-10T00:50:38.951Z,29.10
2018-04-10T00:53:24.489Z,29.60
2018-04-10T00:55:58.293Z,29.90
2018-04-10T00:58:32.825Z,30.20
2018-04-10T01:01:06.474Z,31.00
2018-04-10T01:03:40.126Z,31.60
2018-04-10T01:06:13.967Z,32.20
2018-04-10T01:08:48.421Z,33.50
2018-04-10T01:11:22.072Z,33.40
2018-04-10T01:13:56.722Z,34.80
2018-04-10T01:16:30.356Z,34.70
2018-04-10T01:19:04.982Z,34.70
2018-04-10T01:21:38.660Z,35.50
2018-04-10T01:24:12.388Z,35.50
2018-04-10T01:26:46.242Z,35.90
2018-04-10T01:29:20.744Z,36.90
2018-04-10T01:31:54.421Z,37.80
2018-04-10T01:34:28.162Z,38.30
2018-04-10T01:37:01.919Z,38.60
2018-04-10T01:39:35.565Z,39.80
2018-04-10T01:42:10.525Z,42.50
2018-04-10T01:44:44.303Z,42.50
2018-04-10T01:47:18.062Z,43.20
2018-04-10T01:49:51.782Z,44.00
2018-04-10T01:52:25.522Z,46.00
2018-04-10T01:54:59.087Z,46.90
2018-04-10T01:57:32.839Z,48.10
2018-04-10T02:00:06.485Z,50.40
2018-04-10T02:02:41.008Z,52.80
2018-04-10T02:05:14.562Z,52.80
2018-04-10T02:07:48.300Z,54.30
2018-04-10T02:10:21.971Z,55.70
2018-04-10T02:12:55.726Z,56.20
2018-04-10T02:15:29.543Z,57.50
2018-04-10T02:18:03.349Z,56.90
2018-04-10T02:20:36.975Z,56.50
2018-04-10T02:23:10.704Z,56.50
2018-04-10T02:25:44.477Z,57.30
2018-04-10T02:28:18.293Z,58.40
2018-04-10T02:30:52.070Z,59.80
2018-04-10T02:33:25.767Z,61.40
2018-04-10T02:35:59.524Z,62.10
2018-04-10T02:38:33.167Z,63.10
2018-04-10T02:41:07.614Z,64.50
2018-04-10T02:43:41.215Z,65.30
2018-04-10T02:46:14.894Z,66.00
2018-04-10T02:48:48.597Z,66.60
2018-04-10T02:51:22.315Z,68.50
2018-04-10T02:53:56.124Z,68.60
2018-04-10T02:56:29.876Z,69.60
2018-04-10T02:59:03.612Z,70.70
2018-04-10T03:01:37.248Z,70.80
2018-04-10T03:04:11.079Z,69.80
2018-04-10T03:06:44.697Z,68.80
2018-04-10T03:09:18.421Z,67.70
2018-04-10T03:11:52.954Z,65.70
2018-04-10T03:14:27.527Z,65.70
2018-04-10T03:17:01.155Z,64.80
2018-04-10T03:19:34.812Z,63.60
2018-04-10T03:22:09.234Z,62.50
2018-04-10T03:24:42.948Z,61.50
2018-04-10T03:27:16.683Z,61.20
2018-04-10T03:29:50.458Z,60.90
2018-04-10T03:32:24.142Z,59.80
2018-04-10T03:34:58.841Z,59.80
2018-04-10T03:37:33.449Z,60.00
2018-04-10T03:40:07.223Z,60.00
2018-04-10T03:42:40.871Z,60.50
2018-04-10T03:45:14.480Z,61.10
2018-04-10T03:47:49.081Z,60.30
2018-04-10T03:50:22.772Z,60.20
2018-04-10T03:52:56.524Z,59.70
2018-04-10T03:55:30.238Z,60.00
2018-04-10T03:58:04.800Z,59.30
2018-04-10T04:00:38.524Z,59.20
2018-04-10T04:03:12.311Z,59.00
2018-04-10T04:05:46.051Z,58.80
2018-04-10T04:08:19.774Z,58.50
2018-04-10T04:10:53.584Z,58.50
2018-04-10T04:13:28.107Z,58.20
2018-04-10T04:16:01.886Z,58.20
2018-04-10T04:18:47.259Z,57.30
2018-04-10T04:21:32.700Z,56.80
2018-04-10T04:24:06.395Z,56.60
2018-04-10T04:26:40.811Z,55.80
2018-04-10T04:29:15.336Z,55.40
2018-04-10T04:31:49.796Z,55.20
2018-04-10T04:34:23.421Z,55.10
2018-04-10T04:36:57.164Z,55.10
2018-04-10T04:39:30.894Z,56.30
2018-04-10T04:42:04.565Z,56.50
2018-04-10T04:44:38.365Z,56.30
2018-04-10T04:47:12.094Z,56.60
2018-04-10T04:49:45.861Z,56.90
2018-04-10T04:52:19.617Z,57.60
2018-04-10T04:54:53.249Z,58.30
2018-04-10T04:57:26.856Z,58.00
2018-04-10T05:00:00.563Z,59.00
2018-04-10T05:02:35.856Z,59.30
2018-04-10T05:05:09.552Z,59.30
2018-04-10T05:07:43.268Z,60.50
2018-04-10T05:10:16.854Z,61.40
2018-04-10T05:12:51.344Z,61.10
2018-04-10T05:15:26.145Z,61.10
2018-04-10T05:18:00.677Z,60.70
2018-04-10T05:20:34.356Z,60.10
2018-04-10T05:23:08.087Z,59.50
2018-04-10T05:25:41.867Z,58.20
2018-04-10T05:28:15.636Z,56.80
2018-04-10T05:30:49.410Z,55.50
2018-04-10T05:33:23.346Z,54.30
2018-04-10T05:35:57.126Z,53.00
2018-04-10T05:38:30.895Z,51.40
2018-04-10T05:41:04.626Z,50.90
2018-04-10T05:43:38.827Z,49.20
2018-04-10T05:46:12.439Z,48.20
2018-04-10T05:48:47.045Z,45.10
2018-04-10T05:51:20.773Z,45.10
2018-04-10T05:53:54.553Z,43.60
2018-04-10T05:56:28.268Z,43.10
2018-04-10T05:59:02.870Z,42.50
2018-04-10T06:01:36.610Z,41.70
2018-04-10T06:04:10.389Z,40.70
2018-04-10T06:06:44.178Z,39.70
2018-04-10T06:09:17.951Z,38.60
2018-04-10T06:11:51.701Z,37.80
2018-04-10T06:14:25.506Z,36.50
2018-04-10T06:16:59.318Z,35.40
2018-04-10T06:19:33.095Z,34.80
2018-04-10T06:22:06.827Z,33.70
2018-04-10T06:24:40.619Z,33.30
2018-04-10T06:27:14.347Z,33.10
2018-04-10T06:29:48.156Z,32.70
2018-04-10T06:32:21.897Z,32.10
2018-04-10T06:34:56.584Z,31.70
2018-04-10T06:37:30.275Z,30.60
2018-04-10T06:40:04.104Z,29.90
2018-04-10T06:42:37.821Z,29.10
2018-04-10T06:45:11.511Z,28.60
2018-04-10T06:47:45.230Z,28.50
2018-04-10T06:50:19.759Z,27.30
2018-04-10T06:52:54.282Z,27.30
2018-04-10T06:55:28.872Z,27.30
2018-04-10T06:58:02.556Z,26.90
2018-04-10T07:00:36.303Z,26.20
2018-04-10T07:03:10.722Z,24.70
2018-04-10T07:05:45.263Z,24.20
2018-04-10T07:08:20.153Z,23.80
2018-04-10T07:10:54.658Z,23.80
2018-04-10T07:13:29.048Z,22.70
2018-04-10T07:16:07.530Z,22.40
2018-04-10T07:18:41.169Z,21.80
2018-04-10T07:21:15.036Z,21.50
2018-04-10T07:23:48.744Z,21.10
2018-04-10T07:26:22.499Z,20.90
2018-04-10T07:28:56.151Z,20.90
2018-04-10T07:31:29.809Z,20.50
2018-04-10T07:34:03.782Z,20.00
2018-04-10T07:36:38.193Z,19.70
2018-04-10T07:39:12.061Z,19.60
2018-04-10T07:41:45.721Z,19.10
2018-04-10T07:44:19.404Z,18.70
2018-04-10T07:46:53.127Z,18.40
2018-04-10T07:49:27.173Z,18.10
2018-04-10T07:52:01.076Z,17.50
2018-04-10T07:54:35.001Z,17.40
2018-04-10T07:57:08.600Z,16.90
2018-04-10T07:59:42.436Z,16.40
2018-04-10T08:02:16.182Z,16.00
2018-04-10T08:04:50.022Z,15.70
2018-04-10T08:07:23.723Z,15.50
2018-04-10T08:09:57.529Z,14.70
2018-04-10T08:12:31.319Z,14.30
2018-04-10T08:15:05.025Z,14.30
2018-04-10T08:17:39.505Z,14.30
2018-04-10T08:20:13.179Z,14.30
2018-04-10T08:22:47.600Z,14.30
2018-04-10T08:25:21.438Z,13.70
2018-04-10T08:27:56.212Z,13.00
2018-04-10T08:30:30.015Z,12.90
2018-04-10T08:33:03.741Z,12.50
2018-04-10T08:35:38.672Z,11.90
2018-04-10T08:38:12.645Z,11.60
2018-04-10T08:40:46.235Z,11.60
2018-04-10T08:43:19.990Z,11.80
2018-04-10T08:45:53.790Z,11.40
2018-04-10T08:48:28.298Z,10.80
2018-04-10T08:51:01.952Z,10.80
2018-04-10T08:53:35.614Z,10.20
2018-04-10T08:56:09.402Z,9.80
2018-04-10T08:58:43.049Z,9.40
2018-04-10T09:01:16.817Z,10.00
2018-04-10T09:03:50.624Z,9.40
2018-04-10T09:06:24.398Z,9.50
2018-04-10T09:08:59.638Z,8.90
2018-04-10T09:11:33.339Z,8.80
2018-04-10T09:14:07.056Z,8.00
2018-04-10T09:16:40.788Z,7.70
2018-04-10T09:19:15.371Z,7.70
2018-04-10T09:21:49.201Z,7.70
2018-04-10T09:24:23.600Z,7.50
2018-04-10T09:26:57.345Z,7.40
2018-04-10T09:29:30.999Z,7.50
2018-04-10T09:32:04.727Z,7.10
2018-04-10T09:34:39.145Z,6.60
2018-04-10T09:37:12.873Z,6.60
2018-04-10T09:39:48.883Z,6.10
2018-04-10T09:42:24.193Z,6.10
2018-04-10T09:44:58.679Z,5.90
2018-04-10T09:47:32.348Z,5.90
2018-04-10T09:50:06.431Z,5.80
2018-04-10T09:52:39.977Z,5.70
2018-04-10T09:55:13.709Z,5.20
2018-04-10T09:57:47.483Z,5.30
2018-04-10T10:00:26.958Z,5.00
2018-04-10T10:03:00.619Z,4.70
2018-04-10T10:05:34.953Z,4.60
2018-04-10T10:08:08.642Z,4.60
2018-04-10T10:10:42.217Z,4.20
2018-04-10T10:13:15.848Z,4.10
2018-04-10T10:15:49.571Z,3.40
2018-04-10T10:18:23.216Z,3.00
2018-04-10T10:20:56.976Z,2.80
2018-04-10T10:23:30.740Z,2.20
2018-04-10T10:26:05.263Z,2.30
2018-04-10T10:28:40.717Z,2.00
2018-04-10T10:31:14.654Z,1.30
2018-04-10T10:33:48.399Z,1.30
2018-04-10T10:36:22.178Z,1.50
2018-04-10T10:38:55.922Z,1.40
2018-04-10T10:41:29.607Z,1.50
2018-04-10T10:44:04.337Z,1.60
2018-04-10T10:46:40.944Z,1.00
2018-04-10T10:49:16.354Z,1.00
2018-04-10T10:51:50.444Z,1.00
2018-04-10T10:54:24.245Z,1.00
2018-04-10T10:56:58.031Z,1.00
2018-04-10T10:59:32.618Z,1.00
2018-04-10T11:02:07.227Z,1.00
2018-04-10T11:04:43.007Z,1.00
2018-04-10T11:07:17.751Z,1.00
2018-04-10T11:09:52.468Z,1.00
2018-04-10T11:12:28.538Z,1.00
2018-04-10T11:15:03.081Z,1.00
2018-04-10T11:17:37.936Z,1.00
2018-04-10T11:20:12.494Z,1.00
2018-04-10T11:22:47.023Z,1.00
2018-04-10T11:25:20.757Z,1.00
2018-04-10T11:27:54.542Z,1.00
2018-04-10T11:30:29.093Z,1.00
2018-04-10T11:33:02.779Z,1.00
2018-04-10T11:35:36.596Z,1.00
2018-04-10T11:38:10.276Z,1.00
2018-04-10T11:40:44.013Z,1.00
2018-04-10T11:43:17.826Z,1.00
2018-04-10T11:45:51.411Z,1.00
2018-04-10T11:48:24.999Z,1.00
2018-04-10T11:50:59.153Z,1.00
2018-04-10T11:53:33.527Z,1.00
2018-04-10T11:56:08.074Z,1.00
2018-04-10T11:58:41.857Z,1.00
2018-04-10T12:01:16.464Z,1.00
2018-04-10T12:03:52.053Z,1.00
2018-04-10T12:06:28.283Z,1.00
2018-04-10T12:09:02.768Z,1.00
2018-04-10T12:11:36.359Z,1.00
2018-04-10T12:14:10.151Z,1.00
2018-04-10T12:16:43.920Z,1.00
2018-04-10T12:19:17.569Z,1.00
2018-04-10T12:21:51.994Z,1.00
2018-04-10T12:24:26.351Z,1.00
2018-04-10T12:27:00.054Z,1.00
2018-04-10T12:29:33.766Z,1.00
2018-04-10T12:32:07.348Z,1.00
2018-04-10T12:34:41.069Z,1.00
2018-04-10T12:37:16.563Z,1.00
2018-04-10T12:39:50.694Z,1.00
2018-04-10T12:42:25.736Z,1.00
2018-04-10T12:45:00.295Z,1.00
2018-04-10T12:47:34.890Z,1.00
2018-04-10T12:50:10.967Z,1.00
2018-04-10T12:52:45.079Z,1.00
2018-04-10T12:55:18.700Z,1.00
2018-04-10T12:57:52.317Z,1.00
2018-04-10T13:00:26.011Z,1.00
2018-04-10T13:03:00.569Z,1.00
2018-04-10T13:05:34.243Z,1.00
2018-04-10T13:08:09.070Z,1.00
2018-04-10T13:10:45.163Z,1.00
2018-04-10T13:13:18.794Z,1.00
2018-04-10T13:15:52.601Z,1.00
2018-04-10T13:18:26.302Z,1.00
2018-04-10T13:21:00.091Z,1.00
2018-04-10T13:23:33.768Z,1.00
2018-04-10T13:26:07.851Z,1.00
2018-04-10T13:28:41.515Z,1.00
2018-04-10T13:31:15.290Z,1.00
2018-04-10T13:33:48.858Z,1.00
2018-04-10T13:36:22.474Z,1.00
2018-04-10T13:38:57.060Z,1.00
2018-04-10T13:41:30.846Z,1.00
2018-04-10T13:44:04.567Z,1.00
2018-04-10T13:46:38.303Z,1.00
2018-04-10T13:49:11.975Z,1.00
2018-04-10T13:51:46.429Z,1.00
2018-04-10T13:54:20.113Z,1.00
2018-04-10T13:56:53.792Z,1.00
2018-04-10T13:59:27.540Z,1.00
2018-04-10T14:02:02.189Z,1.00
2018-04-10T14:04:36.888Z,1.00
2018-04-10T14:07:10.618Z,1.00
2018-04-10T14:09:44.376Z,1.00
2018-04-10T14:12:17.991Z,1.00
2018-04-10T14:14:51.694Z,1.00
2018-04-10T14:17:25.412Z,1.00
2018-04-10T14:19:59.145Z,1.00
2018-04-10T14:22:32.895Z,1.00
2018-04-10T14:25:06.610Z,1.00
2018-04-10T14:27:40.244Z,1.00
2018-04-10T14:30:14.989Z,1.00
2018-04-10T14:32:50.759Z,1.00
2018-04-10T14:35:26.248Z,1.00
2018-04-10T14:38:01.191Z,1.00
2018-04-10T14:40:36.418Z,1.00
2018-04-10T14:43:12.243Z,1.00
2018-04-10T14:45:45.909Z,1.00
2018-04-10T14:48:19.687Z,1.00
2018-04-10T14:50:54.367Z,1.00
2018-04-10T14:53:28.114Z,1.00
2018-04-10T14:56:01.650Z,1.00
2018-04-10T14:58:35.424Z,1.00
2018-04-10T15:01:09.911Z,1.00
2018-04-10T15:03:43.530Z,1.00
2018-04-10T15:06:17.272Z,1.00
2018-04-10T15:08:50.969Z,1.00
2018-04-10T15:11:24.751Z,1.00
2018-04-10T15:13:58.871Z,1.00
2018-04-10T15:16:32.631Z,1.00
2018-04-10T15:19:06.994Z,1.00
2018-04-10T15:21:40.687Z,1.00
2018-04-10T15:24:14.342Z,1.00
2018-04-10T15:26:47.914Z,1.00
2018-04-10T15:29:23.650Z,1.00
2018-04-10T15:31:57.402Z,1.00
2018-04-10T15:34:32.279Z,1.00
2018-04-10T15:37:05.939Z,1.00
2018-04-10T15:39:39.672Z,1.00
2018-04-10T15:42:13.403Z,1.00
2018-04-10T15:44:49.026Z,1.00
2018-04-10T15:47:22.597Z,1.00
2018-04-10T15:49:57.991Z,1.00
2018-04-10T15:52:31.709Z,1.00
2018-04-10T15:55:05.426Z,1.00
2018-04-10T15:57:39.144Z,1.00
2018-04-10T16:00:13.666Z,1.00
2018-04-10T16:02:47.271Z,1.00
2018-04-10T16:05:21.007Z,1.00
2018-04-10T16:07:54.750Z,1.00
2018-04-10T16:10:28.483Z,1.00
2018-04-10T16:13:02.203Z,1.00
2018-04-10T16:15:36.729Z,1.00
2018-04-10T16:18:10.437Z,1.00
2018-04-10T16:20:44.872Z,1.00
2018-04-10T16:23:18.603Z,1.00
2018-04-10T16:25:52.333Z,1.00
2018-04-10T16:28:26.064Z,1.00
2018-04-10T16:30:59.812Z,1.00
2018-04-10T16:33:33.424Z,1.00
2018-04-10T16:36:07.022Z,1.00
2018-04-10T16:38:40.630Z,1.00
2018-04-10T16:41:14.440Z,1.00
2018-04-10T16:43:48.977Z,1.00
2018-04-10T16:46:22.666Z,1.00
2018-04-10T16:48:56.337Z,1.00
2018-04-10T16:51:30.235Z,1.00
2018-04-10T16:54:03.893Z,1.00
2018-04-10T16:56:40.136Z,1.00
2018-04-10T16:59:16.377Z,1.00
2018-04-10T17:01:52.337Z,1.00
2018-04-10T17:04:27.911Z,1.00
2018-04-10T17:07:03.294Z,1.00
2018-04-10T17:09:37.041Z,1.00
2018-04-10T17:12:12.455Z,1.00
2018-04-10T17:14:47.810Z,1.00
2018-04-10T17:17:22.268Z,1.00
2018-04-10T17:19:55.830Z,1.00
2018-04-10T17:22:31.967Z,1.00
2018-04-10T17:25:07.514Z,1.00
2018-04-10T17:27:41.321Z,1.00
2018-04-10T17:30:15.972Z,1.00
2018-04-10T17:32:49.559Z,1.00
2018-04-10T17:35:27.381Z,1.00
2018-04-10T17:38:02.891Z,1.00
2018-04-10T17:40:39.246Z,1.00
2018-04-10T17:43:13.976Z,1.00
2018-04-10T17:45:49.465Z,1.00
2018-04-10T17:48:26.085Z,1.00
2018-04-10T17:51:04.877Z,1.00
2018-04-10T17:53:40.260Z,1.00
2018-04-10T17:56:15.905Z,1.00
2018-04-10T17:58:52.858Z,1.30
2018-04-10T18:01:27.379Z,1.00
2018-04-10T18:04:01.894Z,1.50
2018-04-10T18:06:35.977Z,1.50
2018-04-10T18:09:09.689Z,2.10
2018-04-10T18:11:44.306Z,2.90
2018-04-10T18:14:18.286Z,2.70
2018-04-10T18:16:52.203Z,2.80
2018-04-10T18:19:30.394Z,3.10
2018-04-10T18:22:06.011Z,3.20
2018-04-10T18:24:43.305Z,4.20
2018-04-10T18:27:18.199Z,4.60
2018-04-10T18:29:51.953Z,5.00
2018-04-10T18:32:25.858Z,5.00
2018-04-10T18:35:00.818Z,6.30
2018-04-10T18:37:34.970Z,6.30
2018-04-10T18:40:09.823Z,6.80
2018-04-10T18:42:45.779Z,7.50
2018-04-10T18:45:22.402Z,7.50
2018-04-10T18:47:57.415Z,7.90
2018-04-10T18:50:32.202Z,7.80
2018-04-10T18:53:06.955Z,7.70
2018-04-10T18:55:43.742Z,8.70
2018-04-10T18:58:19.017Z,8.60
2018-04-10T19:00:53.943Z,8.50
2018-04-10T19:03:27.614Z,8.70
2018-04-10T19:06:02.863Z,8.80
2018-04-10T19:08:39.750Z,8.70
2018-04-10T19:11:15.174Z,9.20
2018-04-10T19:13:52.578Z,9.50
2018-04-10T19:16:26.278Z,9.50
2018-04-10T19:19:04.560Z,9.70
2018-04-10T19:21:38.704Z,10.20
2018-04-10T19:24:14.009Z,10.70
2018-04-10T19:26:49.545Z,10.50
2018-04-10T19:29:23.406Z,10.80
2018-04-10T19:31:58.441Z,10.60
2018-04-10T19:34:34.492Z,11.30
2018-04-10T19:37:10.783Z,11.20
2018-04-10T19:39:45.282Z,11.80
2018-04-10T19:42:20.535Z,12.10
2018-04-10T19:44:58.360Z,12.30
2018-04-10T19:47:34.321Z,12.90
2018-04-10T19:50:07.896Z,13.30
2018-04-10T19:52:43.425Z,13.10
2018-04-10T19:55:17.129Z,13.20
2018-04-10T19:57:53.498Z,13.80
2018-04-10T20:00:33.224Z,14.20
2018-04-10T20:03:08.999Z,14.00
2018-04-10T20:08:42.075Z,14.00
2018-04-10T20:11:21.620Z,14.20
2018-04-10T20:13:55.466Z,15.50
2018-04-10T20:16:29.276Z,15.30
2018-04-10T20:19:03.048Z,15.90
2018-04-10T20:21:37.682Z,16.80
2018-04-10T20:24:12.366Z,17.30
2018-04-10T20:26:45.901Z,17.40
2018-04-10T20:29:19.671Z,17.70
2018-04-10T20:31:54.184Z,18.20
2018-04-10T20:34:28.900Z,19.10
2018-04-10T20:37:03.534Z,18.90
2018-04-10T20:39:39.680Z,19.70
2018-04-10T20:42:22.145Z,19.80
2018-04-10T20:44:55.917Z,20.00
2018-04-10T20:47:30.462Z,20.40
2018-04-10T20:50:04.932Z,20.40
2018-04-10T20:52:40.829Z,20.80
2018-04-10T20:55:15.658Z,20.90
2018-04-10T20:57:49.407Z,21.90
2018-04-10T21:00:23.253Z,21.40
2018-04-10T21:02:57.827Z,22.20
2018-04-10T21:05:31.483Z,22.40
2018-04-10T21:08:05.235Z,23.10
2018-04-10T21:10:38.883Z,23.40
2018-04-10T21:13:12.753Z,23.90
2018-04-10T21:15:46.435Z,25.20
2018-04-10T21:18:20.064Z,25.90
2018-04-10T21:20:54.344Z,26.10
2018-04-10T21:23:28.980Z,26.60
2018-04-10T21:26:02.782Z,26.70
2018-04-10T21:28:36.583Z,26.70
2018-04-10T21:31:10.340Z,27.70
2018-04-10T21:33:44.085Z,28.10
2018-04-10T21:39:16.597Z,29.00
2018-04-10T21:41:52.817Z,30.10
2018-04-10T21:44:27.218Z,30.00
2018-04-10T21:47:02.661Z,31.80
2018-04-10T21:49:36.936Z,31.90
2018-04-10T21:52:10.881Z,33.90
2018-04-10T21:54:44.622Z,34.20
2018-04-10T21:57:19.211Z,34.60
2018-04-10T21:59:55.835Z,36.60
2018-04-10T22:02:29.530Z,37.10
2018-04-10T22:05:04.138Z,38.90
2018-04-10T22:07:37.886Z,38.90
2018-04-10T22:10:11.482Z,40.40
2018-04-10T22:12:46.037Z,41.00
2018-04-10T22:15:20.952Z,41.70
2018-04-10T22:17:57.758Z,42.10
2018-04-10T22:20:32.282Z,42.80
2018-04-10T22:23:06.193Z,42.70
2018-04-10T22:25:40.576Z,43.90
2018-04-10T22:28:15.063Z,44.70
2018-04-10T22:30:49.443Z,46.70
2018-04-10T22:33:25.834Z,46.80
2018-04-10T22:36:00.546Z,48.60
2018-04-10T22:38:35.260Z,50.40
2018-04-10T22:41:08.980Z,50.90
2018-04-10T22:43:43.644Z,52.90
2018-04-10T22:46:17.330Z,54.70
2018-04-10T22:48:50.972Z,56.40
2018-04-10T22:51:24.701Z,58.50
2018-04-10T22:53:58.647Z,58.60
2018-04-10T22:56:32.336Z,60.90
2018-04-10T22:59:06.079Z,62.30
2018-04-10T23:01:39.817Z,64.40
2018-04-10T23:04:13.628Z,65.70
2018-04-10T23:06:47.415Z,66.90
2018-04-10T23:09:21.998Z,68.20
2018-04-10T23:11:56.574Z,69.40
2018-04-10T23:14:31.713Z,69.40
2018-04-10T23:17:05.302Z,70.40
2018-04-10T23:19:38.872Z,71.00
2018-04-10T23:22:17.442Z,72.30
2018-04-10T23:24:53.491Z,73.40
2018-04-10T23:27:27.104Z,74.80
2018-04-10T23:30:00.884Z,75.90
2018-04-10T23:32:34.699Z,76.60
2018-04-10T23:35:09.159Z,76.50
2018-04-10T23:37:43.543Z,77.20
2018-04-10T23:40:18.054Z,78.20
2018-04-10T23:42:52.414Z,78.20
2018-04-10T23:45:26.029Z,78.10
2018-04-10T23:48:00.517Z,78.40
2018-04-10T23:50:35.310Z,78.70
2018-04-10T23:53:09.556Z,78.60
2018-04-10T23:55:44.816Z,79.40
2018-04-10T23:58:18.583Z,80.00
